sensor_id;sensor_type;location;lat;lon;timestamp;P1;durP1;ratioP1;P2;durP2;ratioP2
4911;SDS011;2471;47.056;8.350;2022-11-24T00:00:13;2.17;;;1.80;;
4911;SDS011;2471;47.056;8.350;2022-11-24T00:02:39;3.50;;;1.97;;
4911;SDS011;2471;47.056;8.350;2022-11-24T00:05:05;2.33;;;2.03;;
4911;SDS011;2471;47.056;8.350;2022-11-24T00:07:31;3.30;;;2.27;;
4911;SDS011;2471;47.056;8.350;2022-11-24T00:09:57;4.93;;;2.00;;
4911;SDS011;2471;47.056;8.350;2022-11-24T00:12:23;2.70;;;2.10;;
4911;SDS011;2471;47.056;8.350;2022-11-24T00:14:49;3.67;;;2.63;;
4911;SDS011;2471;47.056;8.350;2022-11-24T00:17:15;3.43;;;2.47;;
4911;SDS011;2471;47.056;8.350;2022-11-24T00:19:41;2.60;;;2.40;;
4911;SDS011;2471;47.056;8.350;2022-11-24T00:22:07;2.07;;;1.87;;
4911;SDS011;2471;47.056;8.350;2022-11-24T00:24:33;6.80;;;2.20;;
4911;SDS011;2471;47.056;8.350;2022-11-24T00:26:59;8.30;;;2.23;;
4911;SDS011;2471;47.056;8.350;2022-11-24T00:29:25;4.60;;;2.60;;
4911;SDS011;2471;47.056;8.350;2022-11-24T00:31:51;2.27;;;2.07;;
4911;SDS011;2471;47.056;8.350;2022-11-24T00:34:17;2.47;;;2.13;;
4911;SDS011;2471;47.056;8.350;2022-11-24T00:36:43;4.53;;;1.97;;
4911;SDS011;2471;47.056;8.350;2022-11-24T00:39:13;4.20;;;2.03;;
4911;SDS011;2471;47.056;8.350;2022-11-24T00:41:39;3.77;;;2.20;;
4911;SDS011;2471;47.056;8.350;2022-11-24T00:44:05;3.37;;;1.83;;
4911;SDS011;2471;47.056;8.350;2022-11-24T00:46:32;2.57;;;2.47;;
4911;SDS011;2471;47.056;8.350;2022-11-24T00:48:58;2.47;;;2.20;;
4911;SDS011;2471;47.056;8.350;2022-11-24T00:51:25;3.03;;;2.07;;
4911;SDS011;2471;47.056;8.350;2022-11-24T00:53:52;5.77;;;2.47;;
4911;SDS011;2471;47.056;8.350;2022-11-24T00:56:19;5.00;;;2.73;;
4911;SDS011;2471;47.056;8.350;2022-11-24T00:58:45;5.83;;;2.30;;
4911;SDS011;2471;47.056;8.350;2022-11-24T01:01:14;7.60;;;2.20;;
4911;SDS011;2471;47.056;8.350;2022-11-24T01:03:41;2.57;;;2.00;;
4911;SDS011;2471;47.056;8.350;2022-11-24T01:06:09;6.60;;;2.30;;
4911;SDS011;2471;47.056;8.350;2022-11-24T01:08:36;2.20;;;2.00;;
4911;SDS011;2471;47.056;8.350;2022-11-24T01:11:12;2.07;;;1.93;;
4911;SDS011;2471;47.056;8.350;2022-11-24T01:13:38;2.43;;;2.23;;
4911;SDS011;2471;47.056;8.350;2022-11-24T01:16:05;1.93;;;1.80;;
4911;SDS011;2471;47.056;8.350;2022-11-24T01:18:31;2.60;;;2.40;;
4911;SDS011;2471;47.056;8.350;2022-11-24T01:20:57;2.73;;;2.53;;
4911;SDS011;2471;47.056;8.350;2022-11-24T01:23:23;4.73;;;2.30;;
4911;SDS011;2471;47.056;8.350;2022-11-24T01:25:49;3.63;;;2.60;;
4911;SDS011;2471;47.056;8.350;2022-11-24T01:28:15;2.70;;;2.27;;
4911;SDS011;2471;47.056;8.350;2022-11-24T01:30:41;3.60;;;2.33;;
4911;SDS011;2471;47.056;8.350;2022-11-24T01:33:07;2.90;;;2.47;;
4911;SDS011;2471;47.056;8.350;2022-11-24T01:35:33;2.87;;;2.63;;
4911;SDS011;2471;47.056;8.350;2022-11-24T01:37:59;2.90;;;2.40;;
4911;SDS011;2471;47.056;8.350;2022-11-24T01:40:25;2.23;;;2.13;;
4911;SDS011;2471;47.056;8.350;2022-11-24T01:42:51;2.40;;;2.13;;
4911;SDS011;2471;47.056;8.350;2022-11-24T01:45:29;5.70;;;2.50;;
4911;SDS011;2471;47.056;8.350;2022-11-24T01:47:55;4.60;;;3.80;;
4911;SDS011;2471;47.056;8.350;2022-11-24T01:50:21;4.77;;;3.00;;
4911;SDS011;2471;47.056;8.350;2022-11-24T01:52:48;4.63;;;2.87;;
4911;SDS011;2471;47.056;8.350;2022-11-24T01:55:16;3.30;;;2.87;;
4911;SDS011;2471;47.056;8.350;2022-11-24T01:57:46;5.27;;;2.67;;
4911;SDS011;2471;47.056;8.350;2022-11-24T02:00:15;3.60;;;2.60;;
4911;SDS011;2471;47.056;8.350;2022-11-24T02:02:42;2.63;;;2.43;;
4911;SDS011;2471;47.056;8.350;2022-11-24T02:05:29;5.40;;;2.90;;
4911;SDS011;2471;47.056;8.350;2022-11-24T02:07:58;6.33;;;2.70;;
4911;SDS011;2471;47.056;8.350;2022-11-24T02:10:24;4.00;;;2.20;;
4911;SDS011;2471;47.056;8.350;2022-11-24T02:12:51;12.17;;;2.30;;
4911;SDS011;2471;47.056;8.350;2022-11-24T02:15:19;2.40;;;1.90;;
4911;SDS011;2471;47.056;8.350;2022-11-24T02:17:45;4.23;;;2.77;;
4911;SDS011;2471;47.056;8.350;2022-11-24T02:20:11;3.30;;;3.00;;
4911;SDS011;2471;47.056;8.350;2022-11-24T02:25:28;4.37;;;2.50;;
4911;SDS011;2471;47.056;8.350;2022-11-24T02:27:56;2.60;;;2.37;;
4911;SDS011;2471;47.056;8.350;2022-11-24T02:30:23;4.23;;;2.90;;
4911;SDS011;2471;47.056;8.350;2022-11-24T02:32:49;8.10;;;2.40;;
4911;SDS011;2471;47.056;8.350;2022-11-24T02:35:15;5.50;;;2.00;;
4911;SDS011;2471;47.056;8.350;2022-11-24T02:37:41;4.10;;;2.10;;
4911;SDS011;2471;47.056;8.350;2022-11-24T02:40:07;2.90;;;2.23;;
4911;SDS011;2471;47.056;8.350;2022-11-24T02:42:36;3.00;;;2.20;;
4911;SDS011;2471;47.056;8.350;2022-11-24T02:45:03;3.77;;;2.20;;
4911;SDS011;2471;47.056;8.350;2022-11-24T02:47:29;4.23;;;1.93;;
4911;SDS011;2471;47.056;8.350;2022-11-24T02:49:55;3.70;;;1.90;;
4911;SDS011;2471;47.056;8.350;2022-11-24T02:52:21;8.63;;;1.97;;
4911;SDS011;2471;47.056;8.350;2022-11-24T02:54:46;3.13;;;2.23;;
4911;SDS011;2471;47.056;8.350;2022-11-24T02:57:12;4.30;;;2.00;;
4911;SDS011;2471;47.056;8.350;2022-11-24T02:59:39;6.40;;;2.10;;
4911;SDS011;2471;47.056;8.350;2022-11-24T03:02:05;3.83;;;2.37;;
4911;SDS011;2471;47.056;8.350;2022-11-24T03:04:31;5.43;;;2.17;;
4911;SDS011;2471;47.056;8.350;2022-11-24T03:06:57;9.70;;;2.17;;
4911;SDS011;2471;47.056;8.350;2022-11-24T03:09:24;3.43;;;1.80;;
4911;SDS011;2471;47.056;8.350;2022-11-24T03:11:50;5.43;;;2.13;;
4911;SDS011;2471;47.056;8.350;2022-11-24T03:14:16;3.23;;;1.77;;
4911;SDS011;2471;47.056;8.350;2022-11-24T03:16:42;13.17;;;2.67;;
4911;SDS011;2471;47.056;8.350;2022-11-24T03:19:08;3.90;;;1.80;;
4911;SDS011;2471;47.056;8.350;2022-11-24T03:21:35;4.23;;;2.30;;
4911;SDS011;2471;47.056;8.350;2022-11-24T03:24:01;4.93;;;2.00;;
4911;SDS011;2471;47.056;8.350;2022-11-24T03:26:26;4.13;;;2.07;;
4911;SDS011;2471;47.056;8.350;2022-11-24T03:28:53;5.93;;;2.10;;
4911;SDS011;2471;47.056;8.350;2022-11-24T03:31:20;5.67;;;2.50;;
4911;SDS011;2471;47.056;8.350;2022-11-24T03:33:46;4.90;;;2.23;;
4911;SDS011;2471;47.056;8.350;2022-11-24T03:36:12;5.47;;;2.10;;
4911;SDS011;2471;47.056;8.350;2022-11-24T03:38:38;2.27;;;1.93;;
4911;SDS011;2471;47.056;8.350;2022-11-24T03:41:04;3.07;;;2.27;;
4911;SDS011;2471;47.056;8.350;2022-11-24T03:43:30;6.73;;;1.80;;
4911;SDS011;2471;47.056;8.350;2022-11-24T03:45:56;3.93;;;1.60;;
4911;SDS011;2471;47.056;8.350;2022-11-24T03:48:22;13.00;;;2.20;;
4911;SDS011;2471;47.056;8.350;2022-11-24T03:50:55;3.80;;;1.77;;
4911;SDS011;2471;47.056;8.350;2022-11-24T03:53:21;4.63;;;1.93;;
4911;SDS011;2471;47.056;8.350;2022-11-24T03:55:47;2.13;;;1.90;;
4911;SDS011;2471;47.056;8.350;2022-11-24T03:58:13;5.80;;;2.27;;
4911;SDS011;2471;47.056;8.350;2022-11-24T04:00:39;5.87;;;2.00;;
4911;SDS011;2471;47.056;8.350;2022-11-24T04:03:05;6.10;;;2.33;;
4911;SDS011;2471;47.056;8.350;2022-11-24T04:05:31;4.90;;;2.67;;
4911;SDS011;2471;47.056;8.350;2022-11-24T04:07:57;7.90;;;3.90;;
4911;SDS011;2471;47.056;8.350;2022-11-24T04:10:26;13.00;;;2.87;;
4911;SDS011;2471;47.056;8.350;2022-11-24T04:12:52;6.47;;;2.10;;
4911;SDS011;2471;47.056;8.350;2022-11-24T04:15:19;4.10;;;2.30;;
4911;SDS011;2471;47.056;8.350;2022-11-24T04:17:45;2.80;;;1.50;;
4911;SDS011;2471;47.056;8.350;2022-11-24T04:20:12;1.90;;;1.80;;
4911;SDS011;2471;47.056;8.350;2022-11-24T04:22:38;7.50;;;2.67;;
4911;SDS011;2471;47.056;8.350;2022-11-24T04:25:04;7.30;;;2.40;;
4911;SDS011;2471;47.056;8.350;2022-11-24T04:27:34;5.73;;;1.70;;
4911;SDS011;2471;47.056;8.350;2022-11-24T04:30:00;2.03;;;1.93;;
4911;SDS011;2471;47.056;8.350;2022-11-24T04:32:26;2.70;;;2.20;;
4911;SDS011;2471;47.056;8.350;2022-11-24T04:34:52;2.50;;;1.80;;
4911;SDS011;2471;47.056;8.350;2022-11-24T04:37:18;5.70;;;2.13;;
4911;SDS011;2471;47.056;8.350;2022-11-24T04:39:44;3.50;;;1.90;;
4911;SDS011;2471;47.056;8.350;2022-11-24T04:42:10;3.00;;;2.00;;
4911;SDS011;2471;47.056;8.350;2022-11-24T04:44:36;3.23;;;1.87;;
4911;SDS011;2471;47.056;8.350;2022-11-24T04:47:02;6.40;;;1.80;;
4911;SDS011;2471;47.056;8.350;2022-11-24T04:49:28;2.70;;;1.97;;
4911;SDS011;2471;47.056;8.350;2022-11-24T04:51:55;5.13;;;2.50;;
4911;SDS011;2471;47.056;8.350;2022-11-24T04:54:21;2.87;;;2.57;;
4911;SDS011;2471;47.056;8.350;2022-11-24T04:56:50;4.53;;;1.97;;
4911;SDS011;2471;47.056;8.350;2022-11-24T04:59:17;3.43;;;2.20;;
4911;SDS011;2471;47.056;8.350;2022-11-24T05:01:43;5.67;;;2.33;;
4911;SDS011;2471;47.056;8.350;2022-11-24T05:04:10;4.00;;;2.10;;
4911;SDS011;2471;47.056;8.350;2022-11-24T05:06:37;3.83;;;1.90;;
4911;SDS011;2471;47.056;8.350;2022-11-24T05:09:03;8.43;;;3.00;;
4911;SDS011;2471;47.056;8.350;2022-11-24T05:11:29;4.80;;;2.60;;
4911;SDS011;2471;47.056;8.350;2022-11-24T05:13:55;3.07;;;2.30;;
4911;SDS011;2471;47.056;8.350;2022-11-24T05:16:21;3.43;;;3.13;;
4911;SDS011;2471;47.056;8.350;2022-11-24T05:18:47;2.90;;;1.90;;
4911;SDS011;2471;47.056;8.350;2022-11-24T05:21:13;4.93;;;2.30;;
4911;SDS011;2471;47.056;8.350;2022-11-24T05:23:39;8.33;;;2.27;;
4911;SDS011;2471;47.056;8.350;2022-11-24T05:26:05;3.13;;;1.87;;
4911;SDS011;2471;47.056;8.350;2022-11-24T05:28:31;5.60;;;2.60;;
4911;SDS011;2471;47.056;8.350;2022-11-24T05:30:58;2.90;;;2.20;;
4911;SDS011;2471;47.056;8.350;2022-11-24T05:33:24;5.00;;;3.07;;
4911;SDS011;2471;47.056;8.350;2022-11-24T05:35:52;3.57;;;2.20;;
4911;SDS011;2471;47.056;8.350;2022-11-24T05:38:19;4.40;;;2.57;;
4911;SDS011;2471;47.056;8.350;2022-11-24T05:40:46;4.47;;;2.70;;
4911;SDS011;2471;47.056;8.350;2022-11-24T05:43:12;3.63;;;2.30;;
4911;SDS011;2471;47.056;8.350;2022-11-24T05:45:39;2.27;;;1.87;;
4911;SDS011;2471;47.056;8.350;2022-11-24T05:48:05;7.13;;;2.17;;
4911;SDS011;2471;47.056;8.350;2022-11-24T05:50:32;3.30;;;2.17;;
4911;SDS011;2471;47.056;8.350;2022-11-24T05:53:02;6.80;;;2.40;;
4911;SDS011;2471;47.056;8.350;2022-11-24T05:55:28;3.00;;;2.47;;
4911;SDS011;2471;47.056;8.350;2022-11-24T05:58:01;7.87;;;4.20;;
4911;SDS011;2471;47.056;8.350;2022-11-24T06:00:28;4.73;;;2.60;;
4911;SDS011;2471;47.056;8.350;2022-11-24T06:02:55;3.17;;;2.87;;
4911;SDS011;2471;47.056;8.350;2022-11-24T06:05:21;13.00;;;2.10;;
4911;SDS011;2471;47.056;8.350;2022-11-24T06:07:47;2.03;;;1.87;;
4911;SDS011;2471;47.056;8.350;2022-11-24T06:10:14;4.40;;;3.03;;
4911;SDS011;2471;47.056;8.350;2022-11-24T06:12:40;4.17;;;2.00;;
4911;SDS011;2471;47.056;8.350;2022-11-24T06:15:06;3.77;;;2.60;;
4911;SDS011;2471;47.056;8.350;2022-11-24T06:17:32;5.67;;;2.60;;
4911;SDS011;2471;47.056;8.350;2022-11-24T06:19:58;2.30;;;2.10;;
4911;SDS011;2471;47.056;8.350;2022-11-24T06:22:24;5.07;;;2.50;;
4911;SDS011;2471;47.056;8.350;2022-11-24T06:24:50;7.63;;;2.10;;
4911;SDS011;2471;47.056;8.350;2022-11-24T06:27:16;5.47;;;1.97;;
4911;SDS011;2471;47.056;8.350;2022-11-24T06:29:43;6.70;;;2.40;;
4911;SDS011;2471;47.056;8.350;2022-11-24T06:32:09;4.37;;;3.07;;
4911;SDS011;2471;47.056;8.350;2022-11-24T06:34:35;8.40;;;3.60;;
4911;SDS011;2471;47.056;8.350;2022-11-24T06:37:01;3.77;;;2.90;;
4911;SDS011;2471;47.056;8.350;2022-11-24T06:39:27;4.20;;;3.10;;
4911;SDS011;2471;47.056;8.350;2022-11-24T06:41:53;6.10;;;3.17;;
4911;SDS011;2471;47.056;8.350;2022-11-24T06:44:19;5.83;;;2.60;;
4911;SDS011;2471;47.056;8.350;2022-11-24T06:46:46;12.03;;;2.70;;
4911;SDS011;2471;47.056;8.350;2022-11-24T06:49:12;10.10;;;2.73;;
4911;SDS011;2471;47.056;8.350;2022-11-24T06:51:38;3.93;;;3.10;;
4911;SDS011;2471;47.056;8.350;2022-11-24T06:54:05;4.33;;;2.63;;
4911;SDS011;2471;47.056;8.350;2022-11-24T06:56:31;7.27;;;2.80;;
4911;SDS011;2471;47.056;8.350;2022-11-24T06:58:57;14.60;;;3.93;;
4911;SDS011;2471;47.056;8.350;2022-11-24T07:01:24;3.80;;;2.80;;
4911;SDS011;2471;47.056;8.350;2022-11-24T07:03:51;4.83;;;3.30;;
4911;SDS011;2471;47.056;8.350;2022-11-24T07:06:17;6.33;;;3.60;;
4911;SDS011;2471;47.056;8.350;2022-11-24T07:08:44;3.50;;;2.80;;
4911;SDS011;2471;47.056;8.350;2022-11-24T07:11:11;3.97;;;3.20;;
4911;SDS011;2471;47.056;8.350;2022-11-24T07:13:39;7.87;;;3.60;;
4911;SDS011;2471;47.056;8.350;2022-11-24T07:16:15;13.40;;;4.40;;
4911;SDS011;2471;47.056;8.350;2022-11-24T07:18:43;9.57;;;4.87;;
4911;SDS011;2471;47.056;8.350;2022-11-24T07:21:09;7.97;;;4.53;;
4911;SDS011;2471;47.056;8.350;2022-11-24T07:23:35;5.40;;;3.97;;
4911;SDS011;2471;47.056;8.350;2022-11-24T07:26:02;3.83;;;3.53;;
4911;SDS011;2471;47.056;8.350;2022-11-24T07:28:28;6.57;;;3.70;;
4911;SDS011;2471;47.056;8.350;2022-11-24T07:30:54;11.27;;;4.90;;
4911;SDS011;2471;47.056;8.350;2022-11-24T07:33:21;6.83;;;4.57;;
4911;SDS011;2471;47.056;8.350;2022-11-24T07:35:49;9.63;;;3.30;;
4911;SDS011;2471;47.056;8.350;2022-11-24T07:38:16;8.20;;;4.10;;
4911;SDS011;2471;47.056;8.350;2022-11-24T07:40:41;10.20;;;4.27;;
4911;SDS011;2471;47.056;8.350;2022-11-24T07:43:07;5.47;;;4.00;;
4911;SDS011;2471;47.056;8.350;2022-11-24T07:45:33;5.50;;;3.57;;
4911;SDS011;2471;47.056;8.350;2022-11-24T07:47:59;6.07;;;4.30;;
4911;SDS011;2471;47.056;8.350;2022-11-24T07:50:25;5.90;;;3.57;;
4911;SDS011;2471;47.056;8.350;2022-11-24T07:52:51;4.10;;;3.70;;
4911;SDS011;2471;47.056;8.350;2022-11-24T07:55:17;4.30;;;3.90;;
4911;SDS011;2471;47.056;8.350;2022-11-24T07:57:43;5.03;;;3.73;;
4911;SDS011;2471;47.056;8.350;2022-11-24T08:00:09;6.90;;;3.30;;
4911;SDS011;2471;47.056;8.350;2022-11-24T08:02:36;6.63;;;4.43;;
4911;SDS011;2471;47.056;8.350;2022-11-24T08:05:02;4.40;;;3.33;;
4911;SDS011;2471;47.056;8.350;2022-11-24T08:07:28;5.93;;;3.00;;
4911;SDS011;2471;47.056;8.350;2022-11-24T08:09:54;5.80;;;3.90;;
4911;SDS011;2471;47.056;8.350;2022-11-24T08:12:20;8.77;;;3.47;;
4911;SDS011;2471;47.056;8.350;2022-11-24T08:14:49;4.43;;;3.63;;
4911;SDS011;2471;47.056;8.350;2022-11-24T08:17:18;4.77;;;3.80;;
4911;SDS011;2471;47.056;8.350;2022-11-24T08:19:44;8.87;;;4.53;;
4911;SDS011;2471;47.056;8.350;2022-11-24T08:22:10;9.17;;;4.77;;
4911;SDS011;2471;47.056;8.350;2022-11-24T08:24:36;11.63;;;4.40;;
4911;SDS011;2471;47.056;8.350;2022-11-24T08:27:02;6.87;;;4.33;;
4911;SDS011;2471;47.056;8.350;2022-11-24T08:29:28;5.30;;;4.23;;
4911;SDS011;2471;47.056;8.350;2022-11-24T08:31:55;7.83;;;4.60;;
4911;SDS011;2471;47.056;8.350;2022-11-24T08:34:22;9.97;;;4.83;;
4911;SDS011;2471;47.056;8.350;2022-11-24T08:36:48;9.00;;;4.20;;
4911;SDS011;2471;47.056;8.350;2022-11-24T08:39:14;5.60;;;4.07;;
4911;SDS011;2471;47.056;8.350;2022-11-24T08:41:40;8.00;;;3.90;;
4911;SDS011;2471;47.056;8.350;2022-11-24T08:44:06;8.03;;;4.00;;
4911;SDS011;2471;47.056;8.350;2022-11-24T08:46:34;4.73;;;3.63;;
4911;SDS011;2471;47.056;8.350;2022-11-24T08:49:00;10.33;;;4.80;;
4911;SDS011;2471;47.056;8.350;2022-11-24T08:51:26;6.40;;;3.77;;
4911;SDS011;2471;47.056;8.350;2022-11-24T08:53:52;12.50;;;4.27;;
4911;SDS011;2471;47.056;8.350;2022-11-24T08:56:19;6.93;;;4.90;;
4911;SDS011;2471;47.056;8.350;2022-11-24T08:58:45;9.27;;;4.37;;
4911;SDS011;2471;47.056;8.350;2022-11-24T09:01:12;7.10;;;3.60;;
4911;SDS011;2471;47.056;8.350;2022-11-24T09:03:39;7.03;;;3.87;;
4911;SDS011;2471;47.056;8.350;2022-11-24T09:06:05;5.93;;;3.30;;
4911;SDS011;2471;47.056;8.350;2022-11-24T09:08:32;11.37;;;4.43;;
4911;SDS011;2471;47.056;8.350;2022-11-24T09:10:59;7.90;;;3.50;;
4911;SDS011;2471;47.056;8.350;2022-11-24T09:13:26;7.67;;;4.30;;
4911;SDS011;2471;47.056;8.350;2022-11-24T09:15:52;11.30;;;5.80;;
4911;SDS011;2471;47.056;8.350;2022-11-24T09:18:18;13.90;;;4.60;;
4911;SDS011;2471;47.056;8.350;2022-11-24T09:20:44;6.70;;;3.77;;
4911;SDS011;2471;47.056;8.350;2022-11-24T09:23:10;10.67;;;3.87;;
4911;SDS011;2471;47.056;8.350;2022-11-24T09:25:36;12.27;;;4.10;;
4911;SDS011;2471;47.056;8.350;2022-11-24T09:28:02;9.70;;;3.17;;
4911;SDS011;2471;47.056;8.350;2022-11-24T09:30:28;13.77;;;3.47;;
4911;SDS011;2471;47.056;8.350;2022-11-24T09:32:54;6.17;;;2.30;;
4911;SDS011;2471;47.056;8.350;2022-11-24T09:35:20;11.37;;;2.40;;
4911;SDS011;2471;47.056;8.350;2022-11-24T09:37:46;17.90;;;2.90;;
4911;SDS011;2471;47.056;8.350;2022-11-24T09:40:13;5.60;;;2.63;;
4911;SDS011;2471;47.056;8.350;2022-11-24T09:42:43;12.83;;;3.30;;
4911;SDS011;2471;47.056;8.350;2022-11-24T09:45:13;9.30;;;3.70;;
4911;SDS011;2471;47.056;8.350;2022-11-24T09:47:53;9.63;;;3.60;;
4911;SDS011;2471;47.056;8.350;2022-11-24T09:50:22;10.33;;;3.33;;
4911;SDS011;2471;47.056;8.350;2022-11-24T09:52:53;9.03;;;3.00;;
4911;SDS011;2471;47.056;8.350;2022-11-24T10:00:29;13.33;;;5.93;;
4911;SDS011;2471;47.056;8.350;2022-11-24T10:02:55;8.13;;;2.07;;
4911;SDS011;2471;47.056;8.350;2022-11-24T10:05:22;7.40;;;2.13;;
4911;SDS011;2471;47.056;8.350;2022-11-24T10:08:07;6.60;;;2.27;;
4911;SDS011;2471;47.056;8.350;2022-11-24T10:10:38;7.30;;;2.50;;
4911;SDS011;2471;47.056;8.350;2022-11-24T10:13:15;3.93;;;2.03;;
4911;SDS011;2471;47.056;8.350;2022-11-24T10:15:47;13.90;;;3.03;;
4911;SDS011;2471;47.056;8.350;2022-11-24T10:20:57;10.73;;;2.70;;
4911;SDS011;2471;47.056;8.350;2022-11-24T10:28:26;7.53;;;1.90;;
4911;SDS011;2471;47.056;8.350;2022-11-24T10:30:56;6.13;;;2.10;;
4911;SDS011;2471;47.056;8.350;2022-11-24T10:33:24;4.77;;;1.70;;
4911;SDS011;2471;47.056;8.350;2022-11-24T10:35:56;8.03;;;2.10;;
4911;SDS011;2471;47.056;8.350;2022-11-24T10:38:41;6.00;;;2.37;;
4911;SDS011;2471;47.056;8.350;2022-11-24T10:43:55;12.53;;;2.63;;
4911;SDS011;2471;47.056;8.350;2022-11-24T10:46:26;4.20;;;2.40;;
4911;SDS011;2471;47.056;8.350;2022-11-24T10:48:56;6.07;;;1.80;;
4911;SDS011;2471;47.056;8.350;2022-11-24T10:54:13;14.47;;;3.63;;
4911;SDS011;2471;47.056;8.350;2022-11-24T10:56:41;9.30;;;2.93;;
4911;SDS011;2471;47.056;8.350;2022-11-24T11:01:49;8.10;;;2.10;;
4911;SDS011;2471;47.056;8.350;2022-11-24T11:04:19;7.43;;;2.20;;
4911;SDS011;2471;47.056;8.350;2022-11-24T11:06:45;5.47;;;2.20;;
4911;SDS011;2471;47.056;8.350;2022-11-24T11:09:15;11.80;;;2.53;;
4911;SDS011;2471;47.056;8.350;2022-11-24T11:11:43;7.07;;;2.00;;
4911;SDS011;2471;47.056;8.350;2022-11-24T11:14:12;8.10;;;2.87;;
4911;SDS011;2471;47.056;8.350;2022-11-24T11:16:42;12.63;;;2.40;;
4911;SDS011;2471;47.056;8.350;2022-11-24T11:19:30;8.33;;;2.10;;
4911;SDS011;2471;47.056;8.350;2022-11-24T11:22:03;12.30;;;4.97;;
4911;SDS011;2471;47.056;8.350;2022-11-24T11:24:30;10.50;;;4.30;;
4911;SDS011;2471;47.056;8.350;2022-11-24T11:26:58;7.70;;;2.47;;
4911;SDS011;2471;47.056;8.350;2022-11-24T11:29:25;5.87;;;2.70;;
4911;SDS011;2471;47.056;8.350;2022-11-24T11:31:55;5.90;;;2.33;;
4911;SDS011;2471;47.056;8.350;2022-11-24T11:34:21;10.03;;;2.30;;
4911;SDS011;2471;47.056;8.350;2022-11-24T11:36:51;6.63;;;2.30;;
4911;SDS011;2471;47.056;8.350;2022-11-24T11:42:06;4.60;;;1.73;;
4911;SDS011;2471;47.056;8.350;2022-11-24T11:44:37;4.73;;;1.97;;
4911;SDS011;2471;47.056;8.350;2022-11-24T11:47:16;11.33;;;1.77;;
4911;SDS011;2471;47.056;8.350;2022-11-24T11:49:43;12.90;;;3.83;;
4911;SDS011;2471;47.056;8.350;2022-11-24T12:05:26;14.43;;;3.67;;
4911;SDS011;2471;47.056;8.350;2022-11-24T12:08:05;4.97;;;1.67;;
4911;SDS011;2471;47.056;8.350;2022-11-24T12:17:55;5.63;;;1.93;;
4911;SDS011;2471;47.056;8.350;2022-11-24T12:27:47;2.60;;;1.40;;
4911;SDS011;2471;47.056;8.350;2022-11-24T12:30:17;10.10;;;3.23;;
4911;SDS011;2471;47.056;8.350;2022-11-24T12:35:41;11.90;;;2.10;;
4911;SDS011;2471;47.056;8.350;2022-11-24T12:38:21;8.20;;;2.20;;
4911;SDS011;2471;47.056;8.350;2022-11-24T12:43:37;7.30;;;2.23;;
4911;SDS011;2471;47.056;8.350;2022-11-24T12:51:26;13.70;;;2.30;;
4911;SDS011;2471;47.056;8.350;2022-11-24T12:53:52;6.47;;;2.20;;
4911;SDS011;2471;47.056;8.350;2022-11-24T12:56:24;5.20;;;1.67;;
4911;SDS011;2471;47.056;8.350;2022-11-24T12:58:53;5.23;;;1.80;;
4911;SDS011;2471;47.056;8.350;2022-11-24T13:01:24;6.50;;;2.00;;
4911;SDS011;2471;47.056;8.350;2022-11-24T13:09:07;11.83;;;2.03;;
4911;SDS011;2471;47.056;8.350;2022-11-24T13:11:38;6.10;;;2.03;;
4911;SDS011;2471;47.056;8.350;2022-11-24T13:14:05;5.23;;;1.63;;
4911;SDS011;2471;47.056;8.350;2022-11-24T13:16:32;6.20;;;2.23;;
4911;SDS011;2471;47.056;8.350;2022-11-24T13:18:58;9.53;;;3.93;;
4911;SDS011;2471;47.056;8.350;2022-11-24T13:21:31;9.30;;;2.73;;
4911;SDS011;2471;47.056;8.350;2022-11-24T13:24:00;12.33;;;3.23;;
4911;SDS011;2471;47.056;8.350;2022-11-24T13:26:27;9.60;;;3.20;;
4911;SDS011;2471;47.056;8.350;2022-11-24T13:28:59;12.43;;;2.90;;
4911;SDS011;2471;47.056;8.350;2022-11-24T13:31:26;6.80;;;1.57;;
4911;SDS011;2471;47.056;8.350;2022-11-24T13:33:52;8.63;;;2.00;;
4911;SDS011;2471;47.056;8.350;2022-11-24T13:38:52;6.97;;;1.97;;
4911;SDS011;2471;47.056;8.350;2022-11-24T13:47:00;7.40;;;2.23;;
4911;SDS011;2471;47.056;8.350;2022-11-24T13:49:36;4.77;;;2.00;;
4911;SDS011;2471;47.056;8.350;2022-11-24T13:54:48;6.20;;;1.57;;
4911;SDS011;2471;47.056;8.350;2022-11-24T13:57:37;12.10;;;1.83;;
4911;SDS011;2471;47.056;8.350;2022-11-24T14:00:03;6.43;;;1.47;;
4911;SDS011;2471;47.056;8.350;2022-11-24T14:02:29;6.37;;;1.90;;
4911;SDS011;2471;47.056;8.350;2022-11-24T14:04:58;13.53;;;2.00;;
4911;SDS011;2471;47.056;8.350;2022-11-24T14:07:31;5.03;;;1.83;;
4911;SDS011;2471;47.056;8.350;2022-11-24T14:09:57;8.93;;;2.53;;
4911;SDS011;2471;47.056;8.350;2022-11-24T14:12:23;11.90;;;2.33;;
4911;SDS011;2471;47.056;8.350;2022-11-24T14:14:51;3.60;;;1.50;;
4911;SDS011;2471;47.056;8.350;2022-11-24T14:17:23;6.00;;;1.90;;
4911;SDS011;2471;47.056;8.350;2022-11-24T14:19:52;3.60;;;1.30;;
4911;SDS011;2471;47.056;8.350;2022-11-24T14:24:45;10.13;;;1.70;;
4911;SDS011;2471;47.056;8.350;2022-11-24T14:27:16;8.03;;;1.63;;
4911;SDS011;2471;47.056;8.350;2022-11-24T14:29:52;6.37;;;1.37;;
4911;SDS011;2471;47.056;8.350;2022-11-24T14:32:18;5.73;;;2.17;;
4911;SDS011;2471;47.056;8.350;2022-11-24T14:34:45;3.23;;;1.53;;
4911;SDS011;2471;47.056;8.350;2022-11-24T14:37:11;13.93;;;2.00;;
4911;SDS011;2471;47.056;8.350;2022-11-24T14:39:41;6.47;;;1.50;;
4911;SDS011;2471;47.056;8.350;2022-11-24T14:42:25;8.70;;;3.10;;
4911;SDS011;2471;47.056;8.350;2022-11-24T14:49:47;7.03;;;1.33;;
4911;SDS011;2471;47.056;8.350;2022-11-24T14:52:14;6.77;;;1.47;;
4911;SDS011;2471;47.056;8.350;2022-11-24T14:54:51;3.83;;;1.40;;
4911;SDS011;2471;47.056;8.350;2022-11-24T15:05:16;3.40;;;1.50;;
4911;SDS011;2471;47.056;8.350;2022-11-24T15:07:42;8.13;;;1.10;;
4911;SDS011;2471;47.056;8.350;2022-11-24T15:10:20;2.37;;;1.20;;
4911;SDS011;2471;47.056;8.350;2022-11-24T15:12:49;8.83;;;1.77;;
4911;SDS011;2471;47.056;8.350;2022-11-24T15:15:16;3.10;;;1.80;;
4911;SDS011;2471;47.056;8.350;2022-11-24T15:17:55;2.60;;;1.30;;
4911;SDS011;2471;47.056;8.350;2022-11-24T15:20:43;6.37;;;1.63;;
4911;SDS011;2471;47.056;8.350;2022-11-24T15:23:20;5.53;;;1.60;;
4911;SDS011;2471;47.056;8.350;2022-11-24T15:25:52;4.87;;;1.43;;
4911;SDS011;2471;47.056;8.350;2022-11-24T15:28:19;2.90;;;1.13;;
4911;SDS011;2471;47.056;8.350;2022-11-24T15:30:49;6.57;;;2.40;;
4911;SDS011;2471;47.056;8.350;2022-11-24T15:33:16;5.93;;;2.10;;
4911;SDS011;2471;47.056;8.350;2022-11-24T15:35:42;4.70;;;1.90;;
4911;SDS011;2471;47.056;8.350;2022-11-24T15:38:09;4.57;;;1.67;;
4911;SDS011;2471;47.056;8.350;2022-11-24T15:40:38;8.90;;;1.73;;
4911;SDS011;2471;47.056;8.350;2022-11-24T15:43:38;1.87;;;1.40;;
4911;SDS011;2471;47.056;8.350;2022-11-24T15:45:57;3.03;;;2.33;;
4911;SDS011;2471;47.056;8.350;2022-11-24T15:48:23;7.63;;;2.23;;
4911;SDS011;2471;47.056;8.350;2022-11-24T15:50:49;8.97;;;1.83;;
4911;SDS011;2471;47.056;8.350;2022-11-24T15:53:17;1.73;;;1.60;;
4911;SDS011;2471;47.056;8.350;2022-11-24T15:55:44;3.60;;;2.37;;
4911;SDS011;2471;47.056;8.350;2022-11-24T15:58:11;5.93;;;2.27;;
4911;SDS011;2471;47.056;8.350;2022-11-24T16:00:37;6.50;;;2.03;;
4911;SDS011;2471;47.056;8.350;2022-11-24T16:03:04;7.10;;;2.50;;
4911;SDS011;2471;47.056;8.350;2022-11-24T16:05:30;12.07;;;2.80;;
4911;SDS011;2471;47.056;8.350;2022-11-24T16:07:56;8.80;;;3.57;;
4911;SDS011;2471;47.056;8.350;2022-11-24T16:10:23;11.83;;;3.30;;
4911;SDS011;2471;47.056;8.350;2022-11-24T16:12:50;12.63;;;3.00;;
4911;SDS011;2471;47.056;8.350;2022-11-24T16:15:16;7.03;;;3.07;;
4911;SDS011;2471;47.056;8.350;2022-11-24T16:17:42;6.30;;;3.23;;
4911;SDS011;2471;47.056;8.350;2022-11-24T16:20:08;5.70;;;3.60;;
4911;SDS011;2471;47.056;8.350;2022-11-24T16:22:34;5.67;;;3.20;;
4911;SDS011;2471;47.056;8.350;2022-11-24T16:25:00;10.73;;;4.37;;
4911;SDS011;2471;47.056;8.350;2022-11-24T16:27:28;6.03;;;3.77;;
4911;SDS011;2471;47.056;8.350;2022-11-24T16:29:54;5.37;;;3.60;;
4911;SDS011;2471;47.056;8.350;2022-11-24T16:32:20;9.73;;;4.80;;
4911;SDS011;2471;47.056;8.350;2022-11-24T16:34:45;12.77;;;4.00;;
4911;SDS011;2471;47.056;8.350;2022-11-24T16:37:11;11.57;;;4.40;;
4911;SDS011;2471;47.056;8.350;2022-11-24T16:39:37;6.73;;;4.70;;
4911;SDS011;2471;47.056;8.350;2022-11-24T16:42:03;9.40;;;3.80;;
4911;SDS011;2471;47.056;8.350;2022-11-24T16:44:29;7.70;;;3.87;;
4911;SDS011;2471;47.056;8.350;2022-11-24T16:46:55;5.90;;;3.10;;
4911;SDS011;2471;47.056;8.350;2022-11-24T16:49:22;6.40;;;3.20;;
4911;SDS011;2471;47.056;8.350;2022-11-24T16:51:47;7.47;;;3.37;;